sensor_id;sensor_type;location;lat;lon;timestamp;temperature;humidity
2389;DHT22;1205;47.984;7.668;2022-09-09T00:00:18;17.40;99.90
2389;DHT22;1205;47.984;7.668;2022-09-09T00:03:02;17.40;99.90
2389;DHT22;1205;47.984;7.668;2022-09-09T00:06:01;17.40;99.90
2389;DHT22;1205;47.984;7.668;2022-09-09T00:11:26;17.50;99.90
2389;DHT22;1205;47.984;7.668;2022-09-09T00:13:55;17.30;99.90
2389;DHT22;1205;47.984;7.668;2022-09-09T00:16:25;17.40;99.90
2389;DHT22;1205;47.984;7.668;2022-09-09T00:22:15;17.40;99.90
2389;DHT22;1205;47.984;7.668;2022-09-09T00:24:46;17.30;99.90
2389;DHT22;1205;47.984;7.668;2022-09-09T00:30:20;17.30;99.90
2389;DHT22;1205;47.984;7.668;2022-09-09T00:32:48;17.40;99.90
2389;DHT22;1205;47.984;7.668;2022-09-09T00:37:45;17.20;99.90
2389;DHT22;1205;47.984;7.668;2022-09-09T00:40:27;17.20;99.90
2389;DHT22;1205;47.984;7.668;2022-09-09T00:48:33;17.30;99.90
2389;DHT22;1205;47.984;7.668;2022-09-09T00:51:08;17.20;99.90
2389;DHT22;1205;47.984;7.668;2022-09-09T00:56:29;17.10;99.90
2389;DHT22;1205;47.984;7.668;2022-09-09T01:02:02;17.20;99.90
2389;DHT22;1205;47.984;7.668;2022-09-09T01:04:33;17.20;99.90
2389;DHT22;1205;47.984;7.668;2022-09-09T01:07:19;17.10;99.90
2389;DHT22;1205;47.984;7.668;2022-09-09T01:09:52;17.10;99.90
2389;DHT22;1205;47.984;7.668;2022-09-09T01:12:41;17.10;99.90
2389;DHT22;1205;47.984;7.668;2022-09-09T01:15:21;17.20;99.90
2389;DHT22;1205;47.984;7.668;2022-09-09T01:20:27;17.20;99.90
2389;DHT22;1205;47.984;7.668;2022-09-09T01:23:32;17.40;99.90
2389;DHT22;1205;47.984;7.668;2022-09-09T01:26:16;17.50;99.90
2389;DHT22;1205;47.984;7.668;2022-09-09T01:28:46;17.40;99.90
2389;DHT22;1205;47.984;7.668;2022-09-09T01:31:17;17.40;99.90
2389;DHT22;1205;47.984;7.668;2022-09-09T01:33:43;17.30;99.90
2389;DHT22;1205;47.984;7.668;2022-09-09T01:36:26;17.30;99.90
2389;DHT22;1205;47.984;7.668;2022-09-09T01:38:54;17.30;99.90
2389;DHT22;1205;47.984;7.668;2022-09-09T01:41:20;17.40;99.90
2389;DHT22;1205;47.984;7.668;2022-09-09T01:43:46;17.40;99.90
2389;DHT22;1205;47.984;7.668;2022-09-09T01:46:12;17.60;99.90
2389;DHT22;1205;47.984;7.668;2022-09-09T01:48:39;17.50;99.90
2389;DHT22;1205;47.984;7.668;2022-09-09T01:51:07;17.50;99.90
2389;DHT22;1205;47.984;7.668;2022-09-09T01:53:32;17.60;99.90
2389;DHT22;1205;47.984;7.668;2022-09-09T02:01:45;17.70;99.90
2389;DHT22;1205;47.984;7.668;2022-09-09T02:04:41;17.80;99.90
2389;DHT22;1205;47.984;7.668;2022-09-09T02:10:29;17.60;99.90
2389;DHT22;1205;47.984;7.668;2022-09-09T02:12:55;17.70;99.90
2389;DHT22;1205;47.984;7.668;2022-09-09T02:15:29;17.70;99.90
2389;DHT22;1205;47.984;7.668;2022-09-09T02:17:57;17.70;99.90
2389;DHT22;1205;47.984;7.668;2022-09-09T02:20:24;17.70;99.90
2389;DHT22;1205;47.984;7.668;2022-09-09T02:22:53;17.60;99.90
2389;DHT22;1205;47.984;7.668;2022-09-09T02:25:23;17.60;99.90
2389;DHT22;1205;47.984;7.668;2022-09-09T02:27:50;17.50;99.90
2389;DHT22;1205;47.984;7.668;2022-09-09T02:30:17;17.70;99.90
2389;DHT22;1205;47.984;7.668;2022-09-09T02:32:44;17.50;99.90
2389;DHT22;1205;47.984;7.668;2022-09-09T02:35:13;17.50;99.90
2389;DHT22;1205;47.984;7.668;2022-09-09T02:37:42;17.50;99.90
2389;DHT22;1205;47.984;7.668;2022-09-09T02:40:10;17.50;99.90
2389;DHT22;1205;47.984;7.668;2022-09-09T02:42:46;17.50;99.90
2389;DHT22;1205;47.984;7.668;2022-09-09T02:45:15;17.40;99.90
2389;DHT22;1205;47.984;7.668;2022-09-09T02:47:53;17.40;99.90
2389;DHT22;1205;47.984;7.668;2022-09-09T02:50:47;17.30;99.90
2389;DHT22;1205;47.984;7.668;2022-09-09T02:53:28;17.20;99.90
2389;DHT22;1205;47.984;7.668;2022-09-09T02:56:14;17.20;99.90
2389;DHT22;1205;47.984;7.668;2022-09-09T02:58:40;17.10;99.90
2389;DHT22;1205;47.984;7.668;2022-09-09T03:01:06;17.10;99.90
2389;DHT22;1205;47.984;7.668;2022-09-09T03:03:32;17.10;99.90
2389;DHT22;1205;47.984;7.668;2022-09-09T03:05:58;17.20;99.90
2389;DHT22;1205;47.984;7.668;2022-09-09T03:08:24;17.30;99.90
2389;DHT22;1205;47.984;7.668;2022-09-09T03:10:50;17.20;99.90
2389;DHT22;1205;47.984;7.668;2022-09-09T03:13:15;17.20;99.90
2389;DHT22;1205;47.984;7.668;2022-09-09T03:15:41;17.10;99.90
2389;DHT22;1205;47.984;7.668;2022-09-09T03:18:07;17.20;99.90
2389;DHT22;1205;47.984;7.668;2022-09-09T03:20:33;17.40;99.90
2389;DHT22;1205;47.984;7.668;2022-09-09T03:22:59;17.40;99.90
2389;DHT22;1205;47.984;7.668;2022-09-09T03:25:25;17.50;99.90
2389;DHT22;1205;47.984;7.668;2022-09-09T03:27:52;17.50;99.90
2389;DHT22;1205;47.984;7.668;2022-09-09T03:30:27;17.40;99.90
2389;DHT22;1205;47.984;7.668;2022-09-09T03:32:53;17.30;99.90
2389;DHT22;1205;47.984;7.668;2022-09-09T03:35:20;17.60;99.90
2389;DHT22;1205;47.984;7.668;2022-09-09T03:37:46;17.40;99.90
2389;DHT22;1205;47.984;7.668;2022-09-09T03:40:12;17.50;99.90
2389;DHT22;1205;47.984;7.668;2022-09-09T03:42:38;17.30;99.90
2389;DHT22;1205;47.984;7.668;2022-09-09T03:45:08;17.10;99.90
2389;DHT22;1205;47.984;7.668;2022-09-09T03:47:36;17.10;99.90
2389;DHT22;1205;47.984;7.668;2022-09-09T03:50:02;17.10;99.90
2389;DHT22;1205;47.984;7.668;2022-09-09T03:52:29;17.30;99.90
2389;DHT22;1205;47.984;7.668;2022-09-09T03:54:56;17.20;99.90
2389;DHT22;1205;47.984;7.668;2022-09-09T03:57:22;17.20;99.90
2389;DHT22;1205;47.984;7.668;2022-09-09T03:59:47;17.20;99.90
2389;DHT22;1205;47.984;7.668;2022-09-09T04:02:13;17.30;99.90
2389;DHT22;1205;47.984;7.668;2022-09-09T04:04:39;17.10;99.90
2389;DHT22;1205;47.984;7.668;2022-09-09T04:07:04;17.10;99.90
2389;DHT22;1205;47.984;7.668;2022-09-09T04:09:32;17.10;99.90
2389;DHT22;1205;47.984;7.668;2022-09-09T04:11:58;17.00;99.90
2389;DHT22;1205;47.984;7.668;2022-09-09T04:14:23;17.10;99.90
2389;DHT22;1205;47.984;7.668;2022-09-09T04:16:53;17.10;99.90
2389;DHT22;1205;47.984;7.668;2022-09-09T04:19:18;17.00;99.90
2389;DHT22;1205;47.984;7.668;2022-09-09T04:21:44;17.00;99.90
2389;DHT22;1205;47.984;7.668;2022-09-09T04:24:10;17.00;99.90
2389;DHT22;1205;47.984;7.668;2022-09-09T04:26:36;16.90;99.90
2389;DHT22;1205;47.984;7.668;2022-09-09T04:29:03;16.80;99.90
2389;DHT22;1205;47.984;7.668;2022-09-09T04:31:29;16.90;99.90
2389;DHT22;1205;47.984;7.668;2022-09-09T04:33:55;16.90;99.90
2389;DHT22;1205;47.984;7.668;2022-09-09T04:36:20;16.90;99.90
2389;DHT22;1205;47.984;7.668;2022-09-09T04:38:46;17.10;99.90
2389;DHT22;1205;47.984;7.668;2022-09-09T04:41:14;17.10;99.90
2389;DHT22;1205;47.984;7.668;2022-09-09T04:43:39;17.20;99.90
2389;DHT22;1205;47.984;7.668;2022-09-09T04:46:05;17.10;99.90
2389;DHT22;1205;47.984;7.668;2022-09-09T04:48:31;17.20;99.90
2389;DHT22;1205;47.984;7.668;2022-09-09T04:51:02;17.20;99.90
2389;DHT22;1205;47.984;7.668;2022-09-09T04:53:29;17.30;99.90
2389;DHT22;1205;47.984;7.668;2022-09-09T04:56:20;17.40;99.90
2389;DHT22;1205;47.984;7.668;2022-09-09T04:58:45;17.30;99.90
2389;DHT22;1205;47.984;7.668;2022-09-09T05:01:19;17.30;99.90
2389;DHT22;1205;47.984;7.668;2022-09-09T05:03:47;17.20;99.90
2389;DHT22;1205;47.984;7.668;2022-09-09T05:06:18;17.30;99.90
2389;DHT22;1205;47.984;7.668;2022-09-09T05:08:45;17.30;99.90
2389;DHT22;1205;47.984;7.668;2022-09-09T05:11:23;17.30;99.90
2389;DHT22;1205;47.984;7.668;2022-09-09T05:13:50;17.30;99.90
2389;DHT22;1205;47.984;7.668;2022-09-09T05:16:16;17.40;99.90
2389;DHT22;1205;47.984;7.668;2022-09-09T05:18:42;17.50;99.90
2389;DHT22;1205;47.984;7.668;2022-09-09T05:21:09;17.60;99.90
2389;DHT22;1205;47.984;7.668;2022-09-09T05:23:35;17.70;99.90
2389;DHT22;1205;47.984;7.668;2022-09-09T05:26:01;17.70;99.90
2389;DHT22;1205;47.984;7.668;2022-09-09T05:28:27;17.70;99.90
2389;DHT22;1205;47.984;7.668;2022-09-09T05:31:04;17.70;99.90
2389;DHT22;1205;47.984;7.668;2022-09-09T05:33:31;17.70;99.90
2389;DHT22;1205;47.984;7.668;2022-09-09T05:35:58;17.80;99.90
2389;DHT22;1205;47.984;7.668;2022-09-09T05:38:23;17.90;99.90
2389;DHT22;1205;47.984;7.668;2022-09-09T05:40:52;17.90;99.90
2389;DHT22;1205;47.984;7.668;2022-09-09T05:43:19;18.00;99.90
2389;DHT22;1205;47.984;7.668;2022-09-09T05:45:48;18.00;99.90
2389;DHT22;1205;47.984;7.668;2022-09-09T05:48:15;18.10;99.90
2389;DHT22;1205;47.984;7.668;2022-09-09T05:50:41;18.10;99.90
2389;DHT22;1205;47.984;7.668;2022-09-09T05:53:08;18.10;99.90
2389;DHT22;1205;47.984;7.668;2022-09-09T05:55:34;18.10;99.90
2389;DHT22;1205;47.984;7.668;2022-09-09T05:57:59;18.20;99.90
2389;DHT22;1205;47.984;7.668;2022-09-09T06:00:26;18.20;99.90
2389;DHT22;1205;47.984;7.668;2022-09-09T06:02:52;18.20;99.90
2389;DHT22;1205;47.984;7.668;2022-09-09T06:05:19;18.30;99.90
2389;DHT22;1205;47.984;7.668;2022-09-09T06:07:44;18.20;99.90
2389;DHT22;1205;47.984;7.668;2022-09-09T06:10:11;18.30;99.90
2389;DHT22;1205;47.984;7.668;2022-09-09T06:12:39;18.40;99.90
2389;DHT22;1205;47.984;7.668;2022-09-09T06:15:05;18.40;99.90
2389;DHT22;1205;47.984;7.668;2022-09-09T06:17:31;18.50;99.90
2389;DHT22;1205;47.984;7.668;2022-09-09T06:19:56;18.50;99.90
2389;DHT22;1205;47.984;7.668;2022-09-09T06:22:22;18.70;99.90
2389;DHT22;1205;47.984;7.668;2022-09-09T06:24:48;18.70;99.90
2389;DHT22;1205;47.984;7.668;2022-09-09T06:27:13;18.70;99.90
2389;DHT22;1205;47.984;7.668;2022-09-09T06:29:39;18.80;99.90
2389;DHT22;1205;47.984;7.668;2022-09-09T06:32:04;18.70;99.90
2389;DHT22;1205;47.984;7.668;2022-09-09T06:34:30;18.80;99.90
2389;DHT22;1205;47.984;7.668;2022-09-09T06:36:56;18.90;99.90
2389;DHT22;1205;47.984;7.668;2022-09-09T06:39:23;18.80;99.90
2389;DHT22;1205;47.984;7.668;2022-09-09T06:41:49;18.80;99.90
2389;DHT22;1205;47.984;7.668;2022-09-09T06:44:18;18.70;99.90
2389;DHT22;1205;47.984;7.668;2022-09-09T06:46:44;18.80;99.90
2389;DHT22;1205;47.984;7.668;2022-09-09T06:49:13;18.90;99.90
2389;DHT22;1205;47.984;7.668;2022-09-09T06:51:39;18.90;99.90
2389;DHT22;1205;47.984;7.668;2022-09-09T06:54:09;18.90;99.90
2389;DHT22;1205;47.984;7.668;2022-09-09T06:56:40;19.00;99.90
2389;DHT22;1205;47.984;7.668;2022-09-09T06:59:08;19.20;99.90
2389;DHT22;1205;47.984;7.668;2022-09-09T07:01:39;19.40;99.90
2389;DHT22;1205;47.984;7.668;2022-09-09T07:04:09;19.70;99.90
2389;DHT22;1205;47.984;7.668;2022-09-09T07:06:44;19.70;99.90
2389;DHT22;1205;47.984;7.668;2022-09-09T07:09:12;19.70;99.90
2389;DHT22;1205;47.984;7.668;2022-09-09T07:11:43;19.70;99.90
2389;DHT22;1205;47.984;7.668;2022-09-09T07:14:10;19.60;99.90
2389;DHT22;1205;47.984;7.668;2022-09-09T07:16:42;19.90;99.90
2389;DHT22;1205;47.984;7.668;2022-09-09T07:19:08;20.10;99.90
2389;DHT22;1205;47.984;7.668;2022-09-09T07:21:34;20.50;99.90
2389;DHT22;1205;47.984;7.668;2022-09-09T07:24:00;20.70;99.90
2389;DHT22;1205;47.984;7.668;2022-09-09T07:26:28;20.50;99.90
2389;DHT22;1205;47.984;7.668;2022-09-09T07:28:55;20.30;99.90
2389;DHT22;1205;47.984;7.668;2022-09-09T07:33:51;20.60;99.90
2389;DHT22;1205;47.984;7.668;2022-09-09T07:36:19;20.90;99.90
2389;DHT22;1205;47.984;7.668;2022-09-09T07:39:03;20.80;99.90
2389;DHT22;1205;47.984;7.668;2022-09-09T07:41:33;20.50;99.90
2389;DHT22;1205;47.984;7.668;2022-09-09T07:43:59;20.20;99.90
2389;DHT22;1205;47.984;7.668;2022-09-09T07:46:26;20.10;99.90
2389;DHT22;1205;47.984;7.668;2022-09-09T07:48:56;19.80;99.90
2389;DHT22;1205;47.984;7.668;2022-09-09T07:51:23;19.70;99.90
2389;DHT22;1205;47.984;7.668;2022-09-09T07:53:52;19.80;99.90
2389;DHT22;1205;47.984;7.668;2022-09-09T07:56:18;19.80;99.90
2389;DHT22;1205;47.984;7.668;2022-09-09T07:58:47;20.00;99.90
2389;DHT22;1205;47.984;7.668;2022-09-09T08:03:46;20.20;99.90
2389;DHT22;1205;47.984;7.668;2022-09-09T08:06:13;20.30;99.90
2389;DHT22;1205;47.984;7.668;2022-09-09T08:08:39;20.60;99.90
2389;DHT22;1205;47.984;7.668;2022-09-09T08:11:12;20.50;99.90
2389;DHT22;1205;47.984;7.668;2022-09-09T08:13:38;20.50;99.90
2389;DHT22;1205;47.984;7.668;2022-09-09T08:16:08;20.60;99.90
2389;DHT22;1205;47.984;7.668;2022-09-09T08:18:35;20.60;99.90
2389;DHT22;1205;47.984;7.668;2022-09-09T08:23:40;20.90;99.90
2389;DHT22;1205;47.984;7.668;2022-09-09T08:26:34;20.60;99.90
2389;DHT22;1205;47.984;7.668;2022-09-09T08:29:02;20.40;99.90
2389;DHT22;1205;47.984;7.668;2022-09-09T08:31:36;20.50;99.90
2389;DHT22;1205;47.984;7.668;2022-09-09T08:34:04;20.30;99.90
2389;DHT22;1205;47.984;7.668;2022-09-09T08:36:35;20.40;99.90
2389;DHT22;1205;47.984;7.668;2022-09-09T08:39:01;20.60;99.90
2389;DHT22;1205;47.984;7.668;2022-09-09T08:50:13;20.70;99.50
2389;DHT22;1205;47.984;7.668;2022-09-09T08:55:27;20.80;99.90
2389;DHT22;1205;47.984;7.668;2022-09-09T08:57:58;21.00;99.30
2389;DHT22;1205;47.984;7.668;2022-09-09T09:00:34;21.10;98.00
2389;DHT22;1205;47.984;7.668;2022-09-09T09:06:06;21.30;98.10
2389;DHT22;1205;47.984;7.668;2022-09-09T09:08:44;21.40;97.80
2389;DHT22;1205;47.984;7.668;2022-09-09T09:11:10;21.40;96.90
2389;DHT22;1205;47.984;7.668;2022-09-09T09:13:47;21.30;96.60
2389;DHT22;1205;47.984;7.668;2022-09-09T09:16:33;21.30;96.60
2389;DHT22;1205;47.984;7.668;2022-09-09T09:19:00;21.60;96.90
2389;DHT22;1205;47.984;7.668;2022-09-09T09:21:43;21.70;96.20
2389;DHT22;1205;47.984;7.668;2022-09-09T09:24:19;21.30;95.70
2389;DHT22;1205;47.984;7.668;2022-09-09T09:26:45;21.60;96.20
2389;DHT22;1205;47.984;7.668;2022-09-09T09:29:13;21.60;96.20
2389;DHT22;1205;47.984;7.668;2022-09-09T09:31:45;21.60;96.70
2389;DHT22;1205;47.984;7.668;2022-09-09T09:34:13;21.90;95.20
2389;DHT22;1205;47.984;7.668;2022-09-09T09:39:06;21.90;95.10
2389;DHT22;1205;47.984;7.668;2022-09-09T09:41:34;21.90;94.90
2389;DHT22;1205;47.984;7.668;2022-09-09T09:44:01;21.90;94.50
2389;DHT22;1205;47.984;7.668;2022-09-09T09:46:27;21.50;93.70
2389;DHT22;1205;47.984;7.668;2022-09-09T09:49:03;21.60;94.20
2389;DHT22;1205;47.984;7.668;2022-09-09T09:51:32;21.70;94.70
2389;DHT22;1205;47.984;7.668;2022-09-09T09:54:30;21.60;95.20
2389;DHT22;1205;47.984;7.668;2022-09-09T09:57:06;21.80;93.90
2389;DHT22;1205;47.984;7.668;2022-09-09T09:59:34;21.70;93.00
2389;DHT22;1205;47.984;7.668;2022-09-09T10:02:37;21.70;93.30
2389;DHT22;1205;47.984;7.668;2022-09-09T10:05:13;21.30;94.30
2389;DHT22;1205;47.984;7.668;2022-09-09T10:07:39;21.20;94.50
2389;DHT22;1205;47.984;7.668;2022-09-09T10:10:05;21.30;95.00
2389;DHT22;1205;47.984;7.668;2022-09-09T10:21:09;21.80;93.90
2389;DHT22;1205;47.984;7.668;2022-09-09T10:35:12;21.30;94.90
2389;DHT22;1205;47.984;7.668;2022-09-09T10:38:10;21.50;94.20
2389;DHT22;1205;47.984;7.668;2022-09-09T10:40:48;21.50;93.90
2389;DHT22;1205;47.984;7.668;2022-09-09T10:56:56;20.90;94.40
2389;DHT22;1205;47.984;7.668;2022-09-09T10:59:29;20.80;93.80
2389;DHT22;1205;47.984;7.668;2022-09-09T11:02:07;20.50;95.40
2389;DHT22;1205;47.984;7.668;2022-09-09T11:04:40;20.30;96.50
2389;DHT22;1205;47.984;7.668;2022-09-09T11:07:11;20.40;96.00
2389;DHT22;1205;47.984;7.668;2022-09-09T11:09:41;20.60;96.30
2389;DHT22;1205;47.984;7.668;2022-09-09T11:12:13;20.50;95.80
2389;DHT22;1205;47.984;7.668;2022-09-09T11:14:51;20.70;95.90
2389;DHT22;1205;47.984;7.668;2022-09-09T11:17:23;20.70;95.90
2389;DHT22;1205;47.984;7.668;2022-09-09T11:19:49;21.10;95.80
2389;DHT22;1205;47.984;7.668;2022-09-09T11:22:29;21.00;95.60
2389;DHT22;1205;47.984;7.668;2022-09-09T11:39:35;22.10;94.60
2389;DHT22;1205;47.984;7.668;2022-09-09T11:42:23;21.80;93.40
2389;DHT22;1205;47.984;7.668;2022-09-09T11:44:50;22.00;94.20
2389;DHT22;1205;47.984;7.668;2022-09-09T11:47:27;22.10;93.80
2389;DHT22;1205;47.984;7.668;2022-09-09T11:52:42;22.10;92.40
2389;DHT22;1205;47.984;7.668;2022-09-09T11:55:32;22.10;92.50
2389;DHT22;1205;47.984;7.668;2022-09-09T12:00:32;21.80;91.90
2389;DHT22;1205;47.984;7.668;2022-09-09T12:02:58;21.70;91.60
2389;DHT22;1205;47.984;7.668;2022-09-09T12:05:41;21.70;91.60
2389;DHT22;1205;47.984;7.668;2022-09-09T12:08:10;21.90;91.50
2389;DHT22;1205;47.984;7.668;2022-09-09T12:10:39;22.10;91.90
2389;DHT22;1205;47.984;7.668;2022-09-09T12:13:24;21.80;90.40
2389;DHT22;1205;47.984;7.668;2022-09-09T12:15:52;21.90;90.80
2389;DHT22;1205;47.984;7.668;2022-09-09T12:18:35;22.20;90.90
2389;DHT22;1205;47.984;7.668;2022-09-09T12:23:55;21.50;91.80
2389;DHT22;1205;47.984;7.668;2022-09-09T12:29:33;21.30;91.50
2389;DHT22;1205;47.984;7.668;2022-09-09T12:39:58;21.20;92.20
2389;DHT22;1205;47.984;7.668;2022-09-09T12:42:25;21.00;92.10
2389;DHT22;1205;47.984;7.668;2022-09-09T12:44:55;21.10;92.10
2389;DHT22;1205;47.984;7.668;2022-09-09T12:47:27;21.30;92.60
2389;DHT22;1205;47.984;7.668;2022-09-09T12:49:54;21.20;92.20
2389;DHT22;1205;47.984;7.668;2022-09-09T12:52:32;21.20;92.20
2389;DHT22;1205;47.984;7.668;2022-09-09T12:55:03;21.30;92.30
2389;DHT22;1205;47.984;7.668;2022-09-09T12:57:34;21.50;92.30
2389;DHT22;1205;47.984;7.668;2022-09-09T13:00:15;21.60;92.60
2389;DHT22;1205;47.984;7.668;2022-09-09T13:02:56;21.60;92.30
2389;DHT22;1205;47.984;7.668;2022-09-09T13:05:24;21.60;92.30
2389;DHT22;1205;47.984;7.668;2022-09-09T13:07:51;21.50;92.60
2389;DHT22;1205;47.984;7.668;2022-09-09T13:10:26;21.20;92.40
2389;DHT22;1205;47.984;7.668;2022-09-09T13:12:53;21.10;92.90
2389;DHT22;1205;47.984;7.668;2022-09-09T13:15:24;21.20;93.00
2389;DHT22;1205;47.984;7.668;2022-09-09T13:17:57;20.80;94.60
2389;DHT22;1205;47.984;7.668;2022-09-09T13:20:24;21.00;95.60
2389;DHT22;1205;47.984;7.668;2022-09-09T13:22:51;21.00;95.20
2389;DHT22;1205;47.984;7.668;2022-09-09T13:25:21;21.20;96.20
2389;DHT22;1205;47.984;7.668;2022-09-09T13:30:23;20.90;95.30
2389;DHT22;1205;47.984;7.668;2022-09-09T13:35:58;20.00;98.90
2389;DHT22;1205;47.984;7.668;2022-09-09T13:38:25;20.10;99.20
2389;DHT22;1205;47.984;7.668;2022-09-09T13:41:04;20.10;99.10
2389;DHT22;1205;47.984;7.668;2022-09-09T13:43:34;20.20;99.90
2389;DHT22;1205;47.984;7.668;2022-09-09T13:48:57;20.90;99.10
2389;DHT22;1205;47.984;7.668;2022-09-09T13:51:40;21.00;99.00
2389;DHT22;1205;47.984;7.668;2022-09-09T13:54:10;20.90;97.90
2389;DHT22;1205;47.984;7.668;2022-09-09T13:56:36;20.90;98.80
2389;DHT22;1205;47.984;7.668;2022-09-09T13:59:03;20.90;99.30
2389;DHT22;1205;47.984;7.668;2022-09-09T14:01:29;20.90;99.40
2389;DHT22;1205;47.984;7.668;2022-09-09T14:03:55;20.90;99.20
2389;DHT22;1205;47.984;7.668;2022-09-09T14:06:21;21.00;99.50
2389;DHT22;1205;47.984;7.668;2022-09-09T14:08:50;21.10;99.00
2389;DHT22;1205;47.984;7.668;2022-09-09T14:11:17;21.10;98.80
2389;DHT22;1205;47.984;7.668;2022-09-09T14:13:43;21.10;98.70
2389;DHT22;1205;47.984;7.668;2022-09-09T14:16:09;21.10;98.90
2389;DHT22;1205;47.984;7.668;2022-09-09T14:18:35;21.20;99.30
2389;DHT22;1205;47.984;7.668;2022-09-09T14:21:00;21.30;99.20
2389;DHT22;1205;47.984;7.668;2022-09-09T14:23:27;21.40;98.70
2389;DHT22;1205;47.984;7.668;2022-09-09T14:25:53;21.60;98.10
2389;DHT22;1205;47.984;7.668;2022-09-09T14:28:18;21.60;97.10
2389;DHT22;1205;47.984;7.668;2022-09-09T14:30:44;21.50;97.30
2389;DHT22;1205;47.984;7.668;2022-09-09T14:33:11;21.40;97.70
2389;DHT22;1205;47.984;7.668;2022-09-09T14:35:37;21.30;96.20
2389;DHT22;1205;47.984;7.668;2022-09-09T14:38:04;21.10;94.70
2389;DHT22;1205;47.984;7.668;2022-09-09T14:40:30;21.00;94.40
2389;DHT22;1205;47.984;7.668;2022-09-09T14:42:56;20.90;94.40
2389;DHT22;1205;47.984;7.668;2022-09-09T14:45:23;20.80;93.90
2389;DHT22;1205;47.984;7.668;2022-09-09T14:47:50;20.70;93.50
2389;DHT22;1205;47.984;7.668;2022-09-09T14:50:16;20.80;93.60
2389;DHT22;1205;47.984;7.668;2022-09-09T14:52:42;20.70;93.40
2389;DHT22;1205;47.984;7.668;2022-09-09T14:55:07;20.60;93.70
2389;DHT22;1205;47.984;7.668;2022-09-09T14:57:33;20.70;93.80
2389;DHT22;1205;47.984;7.668;2022-09-09T15:00:01;20.60;93.50
2389;DHT22;1205;47.984;7.668;2022-09-09T15:02:27;20.60;93.30
2389;DHT22;1205;47.984;7.668;2022-09-09T15:04:52;20.70;93.70
2389;DHT22;1205;47.984;7.668;2022-09-09T15:07:22;20.80;94.00
2389;DHT22;1205;47.984;7.668;2022-09-09T15:09:48;20.90;93.40
2389;DHT22;1205;47.984;7.668;2022-09-09T15:12:15;21.00;93.40
2389;DHT22;1205;47.984;7.668;2022-09-09T15:14:40;21.10;93.20
2389;DHT22;1205;47.984;7.668;2022-09-09T15:17:06;21.00;93.80
2389;DHT22;1205;47.984;7.668;2022-09-09T15:19:31;21.00;93.90
2389;DHT22;1205;47.984;7.668;2022-09-09T15:21:57;20.90;93.50
2389;DHT22;1205;47.984;7.668;2022-09-09T15:24:23;20.90;93.90
2389;DHT22;1205;47.984;7.668;2022-09-09T15:26:49;20.80;93.90
2389;DHT22;1205;47.984;7.668;2022-09-09T15:29:15;20.60;94.20
2389;DHT22;1205;47.984;7.668;2022-09-09T15:31:41;20.60;94.70
2389;DHT22;1205;47.984;7.668;2022-09-09T15:34:07;20.60;94.70
2389;DHT22;1205;47.984;7.668;2022-09-09T15:36:50;20.60;94.80
2389;DHT22;1205;47.984;7.668;2022-09-09T15:39:17;20.60;94.70
2389;DHT22;1205;47.984;7.668;2022-09-09T15:41:45;20.70;95.10
2389;DHT22;1205;47.984;7.668;2022-09-09T15:44:12;20.60;94.80
2389;DHT22;1205;47.984;7.668;2022-09-09T15:46:46;20.60;95.60
2389;DHT22;1205;47.984;7.668;2022-09-09T15:49:15;20.60;95.10
2389;DHT22;1205;47.984;7.668;2022-09-09T15:51:43;20.60;95.10
2389;DHT22;1205;47.984;7.668;2022-09-09T15:54:11;20.70;95.80
2389;DHT22;1205;47.984;7.668;2022-09-09T15:56:37;20.50;95.80
2389;DHT22;1205;47.984;7.668;2022-09-09T15:59:03;20.40;96.10
2389;DHT22;1205;47.984;7.668;2022-09-09T16:01:30;20.40;96.70
2389;DHT22;1205;47.984;7.668;2022-09-09T16:03:57;20.20;98.10
2389;DHT22;1205;47.984;7.668;2022-09-09T16:06:24;19.60;99.90
2389;DHT22;1205;47.984;7.668;2022-09-09T16:08:51;19.30;99.90
2389;DHT22;1205;47.984;7.668;2022-09-09T16:11:29;19.00;99.90
2389;DHT22;1205;47.984;7.668;2022-09-09T16:13:55;18.80;99.90
2389;DHT22;1205;47.984;7.668;2022-09-09T16:16:23;18.60;99.90
2389;DHT22;1205;47.984;7.668;2022-09-09T16:18:54;18.60;99.90
2389;DHT22;1205;47.984;7.668;2022-09-09T16:21:23;18.70;99.90
2389;DHT22;1205;47.984;7.668;2022-09-09T16:23:53;18.60;99.90
2389;DHT22;1205;47.984;7.668;2022-09-09T16:26:19;18.80;99.90
2389;DHT22;1205;47.984;7.668;2022-09-09T16:28:45;19.00;99.90
2389;DHT22;1205;47.984;7.668;2022-09-09T16:31:19;19.20;99.90
2389;DHT22;1205;47.984;7.668;2022-09-09T16:33:45;19.30;99.90
2389;DHT22;1205;47.984;7.668;2022-09-09T16:36:17;19.40;99.90
2389;DHT22;1205;47.984;7.668;2022-09-09T16:38:43;19.50;99.90
2389;DHT22;1205;47.984;7.668;2022-09-09T16:41:10;19.40;99.90
2389;DHT22;1205;47.984;7.668;2022-09-09T16:43:36;19.20;99.90
2389;DHT22;1205;47.984;7.668;2022-09-09T16:46:09;19.10;99.90
2389;DHT22;1205;47.984;7.668;2022-09-09T16:48:36;19.10;99.90
2389;DHT22;1205;47.984;7.668;2022-09-09T16:51:04;19.10;99.90
2389;DHT22;1205;47.984;7.668;2022-09-09T16:53:30;19.20;99.90
2389;DHT22;1205;47.984;7.668;2022-09-09T16:55:56;19.20;99.90
2389;DHT22;1205;47.984;7.668;2022-09-09T16:58:22;19.20;99.90
2389;DHT22;1205;47.984;7.668;2022-09-09T17:00:47;19.10;99.90
2389;DHT22;1205;47.984;7.668;2022-09-09T17:03:14;19.10;99.90
2389;DHT22;1205;47.984;7.668;2022-09-09T17:05:40;19.00;99.90
2389;DHT22;1205;47.984;7.668;2022-09-09T17:08:06;19.00;99.90
2389;DHT22;1205;47.984;7.668;2022-09-09T17:10:32;18.90;99.90
2389;DHT22;1205;47.984;7.668;2022-09-09T17:12:58;18.80;99.90
2389;DHT22;1205;47.984;7.668;2022-09-09T17:15:23;18.80;99.90
2389;DHT22;1205;47.984;7.668;2022-09-09T17:17:49;18.80;99.90
2389;DHT22;1205;47.984;7.668;2022-09-09T17:20:19;18.80;99.90
2389;DHT22;1205;47.984;7.668;2022-09-09T17:22:45;18.70;99.90
2389;DHT22;1205;47.984;7.668;2022-09-09T17:25:10;18.70;99.90
2389;DHT22;1205;47.984;7.668;2022-09-09T17:27:36;18.70;99.90
2389;DHT22;1205;47.984;7.668;2022-09-09T17:30:03;18.60;99.90
2389;DHT22;1205;47.984;7.668;2022-09-09T17:32:28;18.60;99.90
2389;DHT22;1205;47.984;7.668;2022-09-09T17:34:55;18.60;99.90
2389;DHT22;1205;47.984;7.668;2022-09-09T17:37:21;18.50;99.90
2389;DHT22;1205;47.984;7.668;2022-09-09T17:39:46;18.50;99.90
2389;DHT22;1205;47.984;7.668;2022-09-09T17:42:12;18.40;99.90
2389;DHT22;1205;47.984;7.668;2022-09-09T17:44:38;18.40;99.90
2389;DHT22;1205;47.984;7.668;2022-09-09T17:47:04;18.30;99.90
2389;DHT22;1205;47.984;7.668;2022-09-09T17:49:31;18.30;99.90
2389;DHT22;1205;47.984;7.668;2022-09-09T17:51:57;18.20;99.90
2389;DHT22;1205;47.984;7.668;2022-09-09T17:54:23;18.20;99.90
2389;DHT22;1205;47.984;7.668;2022-09-09T17:56:48;18.20;99.90
2389;DHT22;1205;47.984;7.668;2022-09-09T17:59:15;18.20;99.90
2389;DHT22;1205;47.984;7.668;2022-09-09T18:01:44;18.10;99.90
2389;DHT22;1205;47.984;7.668;2022-09-09T18:04:11;18.10;99.90
2389;DHT22;1205;47.984;7.668;2022-09-09T18:06:43;18.10;99.90
2389;DHT22;1205;47.984;7.668;2022-09-09T18:09:12;18.10;99.90
2389;DHT22;1205;47.984;7.668;2022-09-09T18:11:40;17.90;99.90
2389;DHT22;1205;47.984;7.668;2022-09-09T18:14:09;17.90;99.90
2389;DHT22;1205;47.984;7.668;2022-09-09T18:16:38;18.00;99.90
2389;DHT22;1205;47.984;7.668;2022-09-09T18:19:06;17.80;99.90
2389;DHT22;1205;47.984;7.668;2022-09-09T18:21:34;17.70;99.90
2389;DHT22;1205;47.984;7.668;2022-09-09T18:24:01;17.70;99.90
2389;DHT22;1205;47.984;7.668;2022-09-09T18:26:28;17.70;99.90
2389;DHT22;1205;47.984;7.668;2022-09-09T18:28:56;17.60;99.90
2389;DHT22;1205;47.984;7.668;2022-09-09T18:31:23;17.70;99.90